sensor_id;sensor_type;location;lat;lon;timestamp;P1;durP1;ratioP1;P2;durP2;ratioP2
20322;SDS011;10319;52.206;20.996;2022-12-18T00:01:20;14.57;;;4.93;;
20322;SDS011;10319;52.206;20.996;2022-12-18T00:03:46;17.37;;;6.97;;
20322;SDS011;10319;52.206;20.996;2022-12-18T00:06:11;17.10;;;5.80;;
20322;SDS011;10319;52.206;20.996;2022-12-18T00:08:37;16.37;;;5.87;;
20322;SDS011;10319;52.206;20.996;2022-12-18T00:11:06;18.43;;;6.70;;
20322;SDS011;10319;52.206;20.996;2022-12-18T00:13:31;17.20;;;6.40;;
20322;SDS011;10319;52.206;20.996;2022-12-18T00:16:01;21.67;;;7.27;;
20322;SDS011;10319;52.206;20.996;2022-12-18T00:18:26;19.57;;;7.47;;
20322;SDS011;10319;52.206;20.996;2022-12-18T00:20:52;19.77;;;7.20;;
20322;SDS011;10319;52.206;20.996;2022-12-18T00:23:17;17.70;;;6.20;;
20322;SDS011;10319;52.206;20.996;2022-12-18T00:25:42;16.27;;;5.80;;
20322;SDS011;10319;52.206;20.996;2022-12-18T00:28:07;15.80;;;5.33;;
20322;SDS011;10319;52.206;20.996;2022-12-18T00:30:32;16.57;;;5.77;;
20322;SDS011;10319;52.206;20.996;2022-12-18T00:32:58;17.63;;;6.17;;
20322;SDS011;10319;52.206;20.996;2022-12-18T00:35:23;18.10;;;6.13;;
20322;SDS011;10319;52.206;20.996;2022-12-18T00:37:48;15.93;;;5.80;;
20322;SDS011;10319;52.206;20.996;2022-12-18T00:40:13;19.70;;;6.90;;
20322;SDS011;10319;52.206;20.996;2022-12-18T00:42:38;20.10;;;8.10;;
20322;SDS011;10319;52.206;20.996;2022-12-18T00:45:23;16.87;;;5.63;;
20322;SDS011;10319;52.206;20.996;2022-12-18T00:47:49;16.27;;;5.80;;
20322;SDS011;10319;52.206;20.996;2022-12-18T00:50:17;20.30;;;7.77;;
20322;SDS011;10319;52.206;20.996;2022-12-18T00:52:42;17.77;;;7.20;;
20322;SDS011;10319;52.206;20.996;2022-12-18T00:55:08;18.27;;;7.00;;
20322;SDS011;10319;52.206;20.996;2022-12-18T00:57:33;18.20;;;6.00;;
20322;SDS011;10319;52.206;20.996;2022-12-18T00:59:59;15.27;;;5.33;;
20322;SDS011;10319;52.206;20.996;2022-12-18T01:02:24;17.97;;;6.30;;
20322;SDS011;10319;52.206;20.996;2022-12-18T01:04:49;16.90;;;6.07;;
20322;SDS011;10319;52.206;20.996;2022-12-18T01:07:14;20.60;;;7.73;;
20322;SDS011;10319;52.206;20.996;2022-12-18T01:09:39;19.63;;;7.60;;
20322;SDS011;10319;52.206;20.996;2022-12-18T01:12:05;20.00;;;7.50;;
20322;SDS011;10319;52.206;20.996;2022-12-18T01:14:30;21.03;;;7.37;;
20322;SDS011;10319;52.206;20.996;2022-12-18T01:16:55;19.60;;;7.60;;
20322;SDS011;10319;52.206;20.996;2022-12-18T01:19:21;21.83;;;8.40;;
20322;SDS011;10319;52.206;20.996;2022-12-18T01:21:46;19.80;;;7.40;;
20322;SDS011;10319;52.206;20.996;2022-12-18T01:24:11;16.40;;;5.53;;
20322;SDS011;10319;52.206;20.996;2022-12-18T01:26:36;14.33;;;4.50;;
20322;SDS011;10319;52.206;20.996;2022-12-18T01:29:02;15.67;;;5.17;;
20322;SDS011;10319;52.206;20.996;2022-12-18T01:31:28;17.07;;;5.70;;
20322;SDS011;10319;52.206;20.996;2022-12-18T01:33:53;19.50;;;7.20;;
20322;SDS011;10319;52.206;20.996;2022-12-18T01:36:20;19.70;;;7.20;;
20322;SDS011;10319;52.206;20.996;2022-12-18T01:38:46;17.50;;;5.83;;
20322;SDS011;10319;52.206;20.996;2022-12-18T01:41:12;18.83;;;6.63;;
20322;SDS011;10319;52.206;20.996;2022-12-18T01:43:54;18.63;;;6.63;;
20322;SDS011;10319;52.206;20.996;2022-12-18T01:46:21;17.97;;;6.47;;
20322;SDS011;10319;52.206;20.996;2022-12-18T01:48:52;17.23;;;5.13;;
20322;SDS011;10319;52.206;20.996;2022-12-18T01:51:18;18.07;;;6.23;;
20322;SDS011;10319;52.206;20.996;2022-12-18T01:53:43;18.20;;;6.47;;
20322;SDS011;10319;52.206;20.996;2022-12-18T01:56:11;16.47;;;5.60;;
20322;SDS011;10319;52.206;20.996;2022-12-18T02:01:03;19.97;;;6.53;;
20322;SDS011;10319;52.206;20.996;2022-12-18T02:03:32;16.10;;;4.53;;
20322;SDS011;10319;52.206;20.996;2022-12-18T02:06:12;15.63;;;5.13;;
20322;SDS011;10319;52.206;20.996;2022-12-18T02:11:22;17.10;;;4.97;;
20322;SDS011;10319;52.206;20.996;2022-12-18T02:13:53;15.67;;;4.70;;
20322;SDS011;10319;52.206;20.996;2022-12-18T02:18:47;18.63;;;5.93;;
20322;SDS011;10319;52.206;20.996;2022-12-18T02:26:20;17.80;;;5.37;;
20322;SDS011;10319;52.206;20.996;2022-12-18T02:28:49;17.10;;;5.57;;
20322;SDS011;10319;52.206;20.996;2022-12-18T02:31:17;19.70;;;6.40;;
20322;SDS011;10319;52.206;20.996;2022-12-18T02:33:44;21.07;;;7.53;;
20322;SDS011;10319;52.206;20.996;2022-12-18T02:36:10;21.50;;;6.47;;
20322;SDS011;10319;52.206;20.996;2022-12-18T02:38:37;17.83;;;6.60;;
20322;SDS011;10319;52.206;20.996;2022-12-18T02:41:03;18.60;;;6.27;;
20322;SDS011;10319;52.206;20.996;2022-12-18T02:43:29;17.77;;;6.80;;
20322;SDS011;10319;52.206;20.996;2022-12-18T02:45:56;20.37;;;6.80;;
20322;SDS011;10319;52.206;20.996;2022-12-18T02:48:31;19.17;;;7.00;;
20322;SDS011;10319;52.206;20.996;2022-12-18T02:51:06;22.97;;;7.97;;
20322;SDS011;10319;52.206;20.996;2022-12-18T02:53:36;21.03;;;7.43;;
20322;SDS011;10319;52.206;20.996;2022-12-18T02:58:55;15.90;;;5.57;;
20322;SDS011;10319;52.206;20.996;2022-12-18T03:04:08;22.53;;;8.40;;
20322;SDS011;10319;52.206;20.996;2022-12-18T03:07:08;19.40;;;6.77;;
20322;SDS011;10319;52.206;20.996;2022-12-18T03:09:32;18.17;;;6.60;;
20322;SDS011;10319;52.206;20.996;2022-12-18T03:12:02;23.20;;;7.73;;
20322;SDS011;10319;52.206;20.996;2022-12-18T03:14:47;21.00;;;7.33;;
20322;SDS011;10319;52.206;20.996;2022-12-18T03:17:15;20.17;;;7.30;;
20322;SDS011;10319;52.206;20.996;2022-12-18T03:19:42;21.77;;;7.47;;
20322;SDS011;10319;52.206;20.996;2022-12-18T03:22:08;21.63;;;7.57;;
20322;SDS011;10319;52.206;20.996;2022-12-18T03:24:34;20.10;;;6.70;;
20322;SDS011;10319;52.206;20.996;2022-12-18T03:27:04;21.07;;;7.53;;
20322;SDS011;10319;52.206;20.996;2022-12-18T03:29:32;19.73;;;6.33;;
20322;SDS011;10319;52.206;20.996;2022-12-18T03:32:01;18.60;;;5.67;;
20322;SDS011;10319;52.206;20.996;2022-12-18T03:34:31;19.00;;;5.90;;
20322;SDS011;10319;52.206;20.996;2022-12-18T03:36:57;18.90;;;5.97;;
20322;SDS011;10319;52.206;20.996;2022-12-18T03:39:23;20.47;;;7.57;;
20322;SDS011;10319;52.206;20.996;2022-12-18T03:41:55;20.37;;;7.73;;
20322;SDS011;10319;52.206;20.996;2022-12-18T03:47:12;19.53;;;7.00;;
20322;SDS011;10319;52.206;20.996;2022-12-18T03:54:32;16.13;;;5.40;;
20322;SDS011;10319;52.206;20.996;2022-12-18T03:57:07;15.17;;;4.83;;
20322;SDS011;10319;52.206;20.996;2022-12-18T03:59:34;19.97;;;6.37;;
20322;SDS011;10319;52.206;20.996;2022-12-18T04:02:00;16.97;;;5.57;;
20322;SDS011;10319;52.206;20.996;2022-12-18T04:04:26;21.57;;;7.20;;
20322;SDS011;10319;52.206;20.996;2022-12-18T04:06:52;17.07;;;5.50;;
20322;SDS011;10319;52.206;20.996;2022-12-18T04:09:17;20.07;;;6.00;;
20322;SDS011;10319;52.206;20.996;2022-12-18T04:11:43;18.57;;;6.97;;
20322;SDS011;10319;52.206;20.996;2022-12-18T04:14:09;20.63;;;6.93;;
20322;SDS011;10319;52.206;20.996;2022-12-18T04:16:34;19.17;;;6.60;;
20322;SDS011;10319;52.206;20.996;2022-12-18T04:19:00;17.23;;;5.57;;
20322;SDS011;10319;52.206;20.996;2022-12-18T04:21:25;16.57;;;5.63;;
20322;SDS011;10319;52.206;20.996;2022-12-18T04:23:50;19.83;;;7.03;;
20322;SDS011;10319;52.206;20.996;2022-12-18T04:26:15;23.07;;;7.80;;
20322;SDS011;10319;52.206;20.996;2022-12-18T04:28:41;19.83;;;6.70;;
20322;SDS011;10319;52.206;20.996;2022-12-18T04:31:06;19.30;;;6.40;;
20322;SDS011;10319;52.206;20.996;2022-12-18T04:33:31;15.33;;;4.63;;
20322;SDS011;10319;52.206;20.996;2022-12-18T04:35:56;17.63;;;5.97;;
20322;SDS011;10319;52.206;20.996;2022-12-18T04:38:22;17.63;;;5.60;;
20322;SDS011;10319;52.206;20.996;2022-12-18T04:40:47;17.97;;;5.63;;
20322;SDS011;10319;52.206;20.996;2022-12-18T04:43:12;16.57;;;5.00;;
20322;SDS011;10319;52.206;20.996;2022-12-18T04:45:37;13.73;;;4.10;;
20322;SDS011;10319;52.206;20.996;2022-12-18T04:48:03;19.10;;;6.60;;
20322;SDS011;10319;52.206;20.996;2022-12-18T04:50:28;16.27;;;4.87;;
20322;SDS011;10319;52.206;20.996;2022-12-18T04:52:53;16.40;;;4.90;;
20322;SDS011;10319;52.206;20.996;2022-12-18T04:55:19;16.77;;;5.33;;
20322;SDS011;10319;52.206;20.996;2022-12-18T04:57:44;16.43;;;5.00;;
20322;SDS011;10319;52.206;20.996;2022-12-18T05:00:09;17.07;;;5.23;;
20322;SDS011;10319;52.206;20.996;2022-12-18T05:02:35;19.27;;;6.60;;
20322;SDS011;10319;52.206;20.996;2022-12-18T05:05:00;16.00;;;5.30;;
20322;SDS011;10319;52.206;20.996;2022-12-18T05:07:25;17.07;;;5.93;;
20322;SDS011;10319;52.206;20.996;2022-12-18T05:09:50;17.97;;;5.57;;
20322;SDS011;10319;52.206;20.996;2022-12-18T05:12:15;18.67;;;5.53;;
20322;SDS011;10319;52.206;20.996;2022-12-18T05:14:41;16.37;;;5.07;;
20322;SDS011;10319;52.206;20.996;2022-12-18T05:17:06;13.57;;;4.13;;
20322;SDS011;10319;52.206;20.996;2022-12-18T05:19:31;15.83;;;4.50;;
20322;SDS011;10319;52.206;20.996;2022-12-18T05:21:57;15.57;;;4.80;;
20322;SDS011;10319;52.206;20.996;2022-12-18T05:24:22;14.97;;;4.07;;
20322;SDS011;10319;52.206;20.996;2022-12-18T05:26:47;14.37;;;3.87;;
20322;SDS011;10319;52.206;20.996;2022-12-18T05:29:12;19.87;;;6.77;;
20322;SDS011;10319;52.206;20.996;2022-12-18T05:31:38;17.20;;;6.07;;
20322;SDS011;10319;52.206;20.996;2022-12-18T05:34:03;18.20;;;5.63;;
20322;SDS011;10319;52.206;20.996;2022-12-18T05:36:29;21.57;;;7.07;;
20322;SDS011;10319;52.206;20.996;2022-12-18T05:38:54;16.93;;;5.60;;
20322;SDS011;10319;52.206;20.996;2022-12-18T05:41:19;22.33;;;8.37;;
20322;SDS011;10319;52.206;20.996;2022-12-18T05:43:44;22.07;;;7.60;;
20322;SDS011;10319;52.206;20.996;2022-12-18T05:46:12;24.23;;;8.63;;
20322;SDS011;10319;52.206;20.996;2022-12-18T05:48:37;23.20;;;7.73;;
20322;SDS011;10319;52.206;20.996;2022-12-18T05:51:04;19.63;;;7.00;;
20322;SDS011;10319;52.206;20.996;2022-12-18T05:53:30;17.03;;;5.50;;
20322;SDS011;10319;52.206;20.996;2022-12-18T05:55:59;21.17;;;7.23;;
20322;SDS011;10319;52.206;20.996;2022-12-18T05:58:24;22.47;;;7.17;;
20322;SDS011;10319;52.206;20.996;2022-12-18T06:00:50;22.33;;;7.70;;
20322;SDS011;10319;52.206;20.996;2022-12-18T06:03:15;19.83;;;6.70;;
20322;SDS011;10319;52.206;20.996;2022-12-18T06:05:41;21.03;;;6.60;;
20322;SDS011;10319;52.206;20.996;2022-12-18T06:08:07;21.33;;;7.07;;
20322;SDS011;10319;52.206;20.996;2022-12-18T06:10:33;21.37;;;6.67;;
20322;SDS011;10319;52.206;20.996;2022-12-18T06:12:58;19.37;;;5.60;;
20322;SDS011;10319;52.206;20.996;2022-12-18T06:15:23;20.90;;;6.47;;
20322;SDS011;10319;52.206;20.996;2022-12-18T06:17:49;21.70;;;6.80;;
20322;SDS011;10319;52.206;20.996;2022-12-18T06:20:14;18.03;;;5.37;;
20322;SDS011;10319;52.206;20.996;2022-12-18T06:22:39;16.93;;;5.57;;
20322;SDS011;10319;52.206;20.996;2022-12-18T06:25:05;19.57;;;6.17;;
20322;SDS011;10319;52.206;20.996;2022-12-18T06:27:30;16.77;;;5.40;;
20322;SDS011;10319;52.206;20.996;2022-12-18T06:29:56;19.27;;;6.20;;
20322;SDS011;10319;52.206;20.996;2022-12-18T06:32:22;19.23;;;6.40;;
20322;SDS011;10319;52.206;20.996;2022-12-18T06:34:47;19.80;;;5.97;;
20322;SDS011;10319;52.206;20.996;2022-12-18T06:37:12;17.00;;;5.40;;
20322;SDS011;10319;52.206;20.996;2022-12-18T06:39:37;20.47;;;6.20;;
20322;SDS011;10319;52.206;20.996;2022-12-18T06:42:03;16.53;;;5.60;;
20322;SDS011;10319;52.206;20.996;2022-12-18T06:44:28;19.03;;;5.23;;
20322;SDS011;10319;52.206;20.996;2022-12-18T06:46:53;16.70;;;5.13;;
20322;SDS011;10319;52.206;20.996;2022-12-18T06:49:18;20.83;;;6.63;;
20322;SDS011;10319;52.206;20.996;2022-12-18T06:51:49;16.90;;;5.47;;
20322;SDS011;10319;52.206;20.996;2022-12-18T06:54:15;23.30;;;7.97;;
20322;SDS011;10319;52.206;20.996;2022-12-18T06:56:40;26.67;;;9.50;;
20322;SDS011;10319;52.206;20.996;2022-12-18T06:59:05;27.23;;;8.77;;
20322;SDS011;10319;52.206;20.996;2022-12-18T07:01:30;22.60;;;7.13;;
20322;SDS011;10319;52.206;20.996;2022-12-18T07:03:56;17.97;;;5.60;;
20322;SDS011;10319;52.206;20.996;2022-12-18T07:06:23;19.27;;;6.00;;
20322;SDS011;10319;52.206;20.996;2022-12-18T07:08:49;21.77;;;7.20;;
20322;SDS011;10319;52.206;20.996;2022-12-18T07:11:14;21.13;;;7.27;;
20322;SDS011;10319;52.206;20.996;2022-12-18T07:13:39;19.37;;;6.50;;
20322;SDS011;10319;52.206;20.996;2022-12-18T07:16:05;22.30;;;7.07;;
20322;SDS011;10319;52.206;20.996;2022-12-18T07:18:31;18.70;;;6.20;;
20322;SDS011;10319;52.206;20.996;2022-12-18T07:20:56;20.57;;;7.67;;
20322;SDS011;10319;52.206;20.996;2022-12-18T07:23:21;19.60;;;6.93;;
20322;SDS011;10319;52.206;20.996;2022-12-18T07:25:46;23.33;;;7.80;;
20322;SDS011;10319;52.206;20.996;2022-12-18T07:28:12;21.90;;;7.13;;
20322;SDS011;10319;52.206;20.996;2022-12-18T07:30:37;23.07;;;7.27;;
20322;SDS011;10319;52.206;20.996;2022-12-18T07:33:03;20.77;;;5.80;;
20322;SDS011;10319;52.206;20.996;2022-12-18T07:35:28;21.90;;;6.37;;
20322;SDS011;10319;52.206;20.996;2022-12-18T07:37:53;15.90;;;4.47;;
20322;SDS011;10319;52.206;20.996;2022-12-18T07:40:18;18.67;;;6.00;;
20322;SDS011;10319;52.206;20.996;2022-12-18T07:42:44;21.73;;;6.63;;
20322;SDS011;10319;52.206;20.996;2022-12-18T07:45:09;19.47;;;5.83;;
20322;SDS011;10319;52.206;20.996;2022-12-18T07:47:35;16.67;;;5.30;;
20322;SDS011;10319;52.206;20.996;2022-12-18T07:50:01;15.23;;;4.70;;
20322;SDS011;10319;52.206;20.996;2022-12-18T07:52:26;22.70;;;7.20;;
20322;SDS011;10319;52.206;20.996;2022-12-18T07:54:51;23.57;;;8.23;;
20322;SDS011;10319;52.206;20.996;2022-12-18T07:57:16;18.27;;;5.73;;
20322;SDS011;10319;52.206;20.996;2022-12-18T07:59:42;18.17;;;5.00;;
20322;SDS011;10319;52.206;20.996;2022-12-18T08:02:07;16.43;;;4.80;;
20322;SDS011;10319;52.206;20.996;2022-12-18T08:04:32;17.43;;;4.77;;
20322;SDS011;10319;52.206;20.996;2022-12-18T08:06:58;19.47;;;6.20;;
20322;SDS011;10319;52.206;20.996;2022-12-18T08:09:23;23.33;;;7.47;;
20322;SDS011;10319;52.206;20.996;2022-12-18T08:11:48;20.83;;;7.47;;
20322;SDS011;10319;52.206;20.996;2022-12-18T08:14:16;21.20;;;7.13;;
20322;SDS011;10319;52.206;20.996;2022-12-18T08:16:41;20.63;;;7.10;;
20322;SDS011;10319;52.206;20.996;2022-12-18T08:19:07;21.20;;;7.53;;
20322;SDS011;10319;52.206;20.996;2022-12-18T08:21:36;19.13;;;6.50;;
20322;SDS011;10319;52.206;20.996;2022-12-18T08:24:01;21.80;;;7.40;;
20322;SDS011;10319;52.206;20.996;2022-12-18T08:26:28;19.80;;;6.40;;
20322;SDS011;10319;52.206;20.996;2022-12-18T08:28:57;21.90;;;6.93;;
20322;SDS011;10319;52.206;20.996;2022-12-18T08:31:23;18.53;;;6.20;;
20322;SDS011;10319;52.206;20.996;2022-12-18T08:33:49;19.40;;;6.67;;
20322;SDS011;10319;52.206;20.996;2022-12-18T08:36:14;19.17;;;5.70;;
20322;SDS011;10319;52.206;20.996;2022-12-18T08:38:39;22.33;;;7.60;;
20322;SDS011;10319;52.206;20.996;2022-12-18T08:41:06;27.57;;;10.03;;
20322;SDS011;10319;52.206;20.996;2022-12-18T08:43:31;23.60;;;8.37;;
20322;SDS011;10319;52.206;20.996;2022-12-18T08:46:15;23.93;;;8.87;;
20322;SDS011;10319;52.206;20.996;2022-12-18T08:48:41;26.03;;;9.07;;
20322;SDS011;10319;52.206;20.996;2022-12-18T08:51:06;20.87;;;7.00;;
20322;SDS011;10319;52.206;20.996;2022-12-18T08:53:31;25.20;;;9.67;;
20322;SDS011;10319;52.206;20.996;2022-12-18T08:55:57;22.80;;;7.60;;
20322;SDS011;10319;52.206;20.996;2022-12-18T08:58:22;18.47;;;5.83;;
20322;SDS011;10319;52.206;20.996;2022-12-18T09:00:47;18.17;;;5.63;;
20322;SDS011;10319;52.206;20.996;2022-12-18T09:03:13;21.30;;;7.77;;
20322;SDS011;10319;52.206;20.996;2022-12-18T09:05:38;27.80;;;9.20;;
20322;SDS011;10319;52.206;20.996;2022-12-18T09:08:03;24.70;;;8.20;;
20322;SDS011;10319;52.206;20.996;2022-12-18T09:10:29;22.80;;;8.07;;
20322;SDS011;10319;52.206;20.996;2022-12-18T09:12:54;28.20;;;10.33;;
20322;SDS011;10319;52.206;20.996;2022-12-18T09:15:21;23.70;;;8.43;;
20322;SDS011;10319;52.206;20.996;2022-12-18T09:17:46;27.60;;;10.17;;
20322;SDS011;10319;52.206;20.996;2022-12-18T09:20:11;27.90;;;10.00;;
20322;SDS011;10319;52.206;20.996;2022-12-18T09:22:36;26.77;;;10.10;;
20322;SDS011;10319;52.206;20.996;2022-12-18T09:25:02;24.63;;;9.87;;
20322;SDS011;10319;52.206;20.996;2022-12-18T09:27:27;30.90;;;11.77;;
20322;SDS011;10319;52.206;20.996;2022-12-18T09:29:52;29.70;;;10.83;;
20322;SDS011;10319;52.206;20.996;2022-12-18T09:32:17;26.20;;;10.10;;
20322;SDS011;10319;52.206;20.996;2022-12-18T09:34:42;21.73;;;8.10;;
20322;SDS011;10319;52.206;20.996;2022-12-18T09:37:08;31.27;;;11.57;;
20322;SDS011;10319;52.206;20.996;2022-12-18T09:39:33;30.73;;;11.90;;
20322;SDS011;10319;52.206;20.996;2022-12-18T09:41:58;26.30;;;9.57;;
20322;SDS011;10319;52.206;20.996;2022-12-18T09:44:34;25.40;;;10.13;;
20322;SDS011;10319;52.206;20.996;2022-12-18T09:47:03;27.07;;;10.20;;
20322;SDS011;10319;52.206;20.996;2022-12-18T09:49:33;22.73;;;8.43;;
20322;SDS011;10319;52.206;20.996;2022-12-18T09:52:01;28.80;;;10.67;;
20322;SDS011;10319;52.206;20.996;2022-12-18T09:54:35;25.13;;;9.17;;
20322;SDS011;10319;52.206;20.996;2022-12-18T09:57:01;24.07;;;8.70;;
20322;SDS011;10319;52.206;20.996;2022-12-18T09:59:29;22.17;;;7.87;;
20322;SDS011;10319;52.206;20.996;2022-12-18T10:01:56;21.40;;;8.30;;
20322;SDS011;10319;52.206;20.996;2022-12-18T10:04:22;24.60;;;9.60;;
20322;SDS011;10319;52.206;20.996;2022-12-18T10:07:03;28.07;;;11.63;;
20322;SDS011;10319;52.206;20.996;2022-12-18T10:19:45;23.73;;;9.23;;
20322;SDS011;10319;52.206;20.996;2022-12-18T10:24:52;23.23;;;8.93;;
20322;SDS011;10319;52.206;20.996;2022-12-18T10:27:21;22.90;;;8.23;;
20322;SDS011;10319;52.206;20.996;2022-12-18T10:29:47;24.40;;;9.10;;
20322;SDS011;10319;52.206;20.996;2022-12-18T10:32:16;24.23;;;9.30;;
20322;SDS011;10319;52.206;20.996;2022-12-18T10:34:44;25.87;;;9.97;;
20322;SDS011;10319;52.206;20.996;2022-12-18T10:37:14;24.07;;;8.80;;
20322;SDS011;10319;52.206;20.996;2022-12-18T10:39:40;27.90;;;10.97;;
20322;SDS011;10319;52.206;20.996;2022-12-18T10:42:10;28.60;;;11.63;;
20322;SDS011;10319;52.206;20.996;2022-12-18T10:44:36;27.93;;;10.33;;
20322;SDS011;10319;52.206;20.996;2022-12-18T10:47:05;24.77;;;9.33;;
20322;SDS011;10319;52.206;20.996;2022-12-18T10:49:32;27.17;;;10.27;;
20322;SDS011;10319;52.206;20.996;2022-12-18T10:52:05;27.83;;;10.60;;
20322;SDS011;10319;52.206;20.996;2022-12-18T10:54:31;29.07;;;11.83;;
20322;SDS011;10319;52.206;20.996;2022-12-18T10:59:54;25.97;;;9.40;;
20322;SDS011;10319;52.206;20.996;2022-12-18T11:02:25;33.67;;;11.47;;
20322;SDS011;10319;52.206;20.996;2022-12-18T11:04:51;28.00;;;9.67;;
20322;SDS011;10319;52.206;20.996;2022-12-18T11:07:17;29.23;;;11.00;;
20322;SDS011;10319;52.206;20.996;2022-12-18T11:09:42;30.97;;;10.90;;
20322;SDS011;10319;52.206;20.996;2022-12-18T11:14:56;38.83;;;14.57;;
20322;SDS011;10319;52.206;20.996;2022-12-18T11:17:28;37.30;;;14.97;;
20322;SDS011;10319;52.206;20.996;2022-12-18T11:19:55;32.70;;;12.03;;
20322;SDS011;10319;52.206;20.996;2022-12-18T11:22:25;27.60;;;10.37;;
20322;SDS011;10319;52.206;20.996;2022-12-18T11:25:17;29.33;;;11.57;;
20322;SDS011;10319;52.206;20.996;2022-12-18T11:27:37;31.07;;;10.70;;
20322;SDS011;10319;52.206;20.996;2022-12-18T11:30:10;23.00;;;8.30;;
20322;SDS011;10319;52.206;20.996;2022-12-18T11:32:36;33.37;;;12.40;;
20322;SDS011;10319;52.206;20.996;2022-12-18T11:35:13;34.03;;;13.03;;
20322;SDS011;10319;52.206;20.996;2022-12-18T11:37:40;38.13;;;14.90;;
20322;SDS011;10319;52.206;20.996;2022-12-18T11:40:10;31.00;;;11.00;;
20322;SDS011;10319;52.206;20.996;2022-12-18T11:42:39;27.07;;;9.93;;
20322;SDS011;10319;52.206;20.996;2022-12-18T11:47:39;23.87;;;8.57;;
20322;SDS011;10319;52.206;20.996;2022-12-18T11:50:10;26.27;;;9.77;;
20322;SDS011;10319;52.206;20.996;2022-12-18T11:52:38;25.40;;;9.37;;
20322;SDS011;10319;52.206;20.996;2022-12-18T11:55:11;25.13;;;9.27;;
20322;SDS011;10319;52.206;20.996;2022-12-18T11:57:39;29.87;;;10.97;;
20322;SDS011;10319;52.206;20.996;2022-12-18T12:00:11;27.93;;;10.27;;
20322;SDS011;10319;52.206;20.996;2022-12-18T12:02:42;24.97;;;9.50;;
20322;SDS011;10319;52.206;20.996;2022-12-18T12:07:39;28.53;;;11.07;;
20322;SDS011;10319;52.206;20.996;2022-12-18T12:10:11;33.10;;;12.17;;
20322;SDS011;10319;52.206;20.996;2022-12-18T12:17:52;19.13;;;6.63;;
20322;SDS011;10319;52.206;20.996;2022-12-18T12:20:31;33.80;;;11.47;;
20322;SDS011;10319;52.206;20.996;2022-12-18T12:23:04;38.03;;;14.10;;
20322;SDS011;10319;52.206;20.996;2022-12-18T12:25:33;33.80;;;12.13;;
20322;SDS011;10319;52.206;20.996;2022-12-18T12:28:12;24.13;;;8.27;;
20322;SDS011;10319;52.206;20.996;2022-12-18T12:31:01;26.20;;;8.57;;
20322;SDS011;10319;52.206;20.996;2022-12-18T12:38:48;26.07;;;9.80;;
20322;SDS011;10319;52.206;20.996;2022-12-18T12:41:16;34.47;;;11.53;;
20322;SDS011;10319;52.206;20.996;2022-12-18T12:44:01;32.30;;;11.67;;
20322;SDS011;10319;52.206;20.996;2022-12-18T12:46:28;25.27;;;9.00;;
20322;SDS011;10319;52.206;20.996;2022-12-18T12:48:56;25.10;;;9.30;;
20322;SDS011;10319;52.206;20.996;2022-12-18T12:51:24;30.07;;;11.83;;
20322;SDS011;10319;52.206;20.996;2022-12-18T12:53:50;34.47;;;12.47;;
20322;SDS011;10319;52.206;20.996;2022-12-18T12:56:17;26.90;;;10.37;;
20322;SDS011;10319;52.206;20.996;2022-12-18T12:59:00;33.27;;;11.87;;
20322;SDS011;10319;52.206;20.996;2022-12-18T13:06:29;32.33;;;11.70;;
20322;SDS011;10319;52.206;20.996;2022-12-18T13:08:59;36.40;;;13.37;;
20322;SDS011;10319;52.206;20.996;2022-12-18T13:11:37;31.17;;;11.60;;
20322;SDS011;10319;52.206;20.996;2022-12-18T13:14:23;29.43;;;11.93;;
20322;SDS011;10319;52.206;20.996;2022-12-18T13:16:49;33.00;;;12.20;;
20322;SDS011;10319;52.206;20.996;2022-12-18T13:19:23;35.50;;;12.53;;
20322;SDS011;10319;52.206;20.996;2022-12-18T13:21:55;30.67;;;10.47;;
20322;SDS011;10319;52.206;20.996;2022-12-18T13:24:27;36.10;;;13.37;;
20322;SDS011;10319;52.206;20.996;2022-12-18T13:26:55;33.67;;;12.90;;
20322;SDS011;10319;52.206;20.996;2022-12-18T13:29:43;31.43;;;12.50;;
20322;SDS011;10319;52.206;20.996;2022-12-18T13:32:22;35.23;;;13.50;;
20322;SDS011;10319;52.206;20.996;2022-12-18T13:34:48;30.47;;;12.00;;
20322;SDS011;10319;52.206;20.996;2022-12-18T13:39:56;36.97;;;13.80;;
20322;SDS011;10319;52.206;20.996;2022-12-18T13:42:32;42.97;;;15.83;;
20322;SDS011;10319;52.206;20.996;2022-12-18T13:45:35;36.20;;;13.23;;
20322;SDS011;10319;52.206;20.996;2022-12-18T13:48:02;30.33;;;11.70;;
20322;SDS011;10319;52.206;20.996;2022-12-18T13:50:28;26.20;;;8.87;;
20322;SDS011;10319;52.206;20.996;2022-12-18T13:52:53;30.77;;;11.13;;
20322;SDS011;10319;52.206;20.996;2022-12-18T13:55:19;25.47;;;9.67;;
20322;SDS011;10319;52.206;20.996;2022-12-18T13:57:44;35.13;;;14.43;;
20322;SDS011;10319;52.206;20.996;2022-12-18T14:02:44;27.67;;;10.13;;
20322;SDS011;10319;52.206;20.996;2022-12-18T14:05:21;31.00;;;11.50;;
20322;SDS011;10319;52.206;20.996;2022-12-18T14:07:46;27.17;;;9.70;;
20322;SDS011;10319;52.206;20.996;2022-12-18T14:10:12;29.80;;;11.50;;
20322;SDS011;10319;52.206;20.996;2022-12-18T14:12:38;25.33;;;9.60;;
20322;SDS011;10319;52.206;20.996;2022-12-18T14:17:50;22.63;;;8.03;;
20322;SDS011;10319;52.206;20.996;2022-12-18T14:20:16;24.53;;;8.43;;
20322;SDS011;10319;52.206;20.996;2022-12-18T14:22:42;26.87;;;10.07;;
20322;SDS011;10319;52.206;20.996;2022-12-18T14:27:36;29.70;;;11.27;;
20322;SDS011;10319;52.206;20.996;2022-12-18T14:30:03;26.37;;;9.73;;
20322;SDS011;10319;52.206;20.996;2022-12-18T14:32:41;21.90;;;7.97;;
20322;SDS011;10319;52.206;20.996;2022-12-18T14:35:12;28.90;;;11.30;;
20322;SDS011;10319;52.206;20.996;2022-12-18T14:37:38;29.10;;;12.10;;
20322;SDS011;10319;52.206;20.996;2022-12-18T14:40:03;27.83;;;11.47;;
20322;SDS011;10319;52.206;20.996;2022-12-18T14:42:29;39.23;;;15.17;;
20322;SDS011;10319;52.206;20.996;2022-12-18T14:47:38;27.17;;;10.23;;
20322;SDS011;10319;52.206;20.996;2022-12-18T14:50:12;24.10;;;8.60;;
20322;SDS011;10319;52.206;20.996;2022-12-18T14:52:38;24.07;;;8.07;;
20322;SDS011;10319;52.206;20.996;2022-12-18T14:55:03;30.17;;;11.47;;
20322;SDS011;10319;52.206;20.996;2022-12-18T14:57:31;32.33;;;12.30;;
20322;SDS011;10319;52.206;20.996;2022-12-18T15:00:04;33.23;;;12.23;;
20322;SDS011;10319;52.206;20.996;2022-12-18T15:02:30;33.13;;;12.17;;
20322;SDS011;10319;52.206;20.996;2022-12-18T15:05:14;35.50;;;13.30;;
20322;SDS011;10319;52.206;20.996;2022-12-18T15:07:41;36.63;;;14.60;;
20322;SDS011;10319;52.206;20.996;2022-12-18T15:10:12;30.97;;;10.67;;
20322;SDS011;10319;52.206;20.996;2022-12-18T15:12:39;26.03;;;9.27;;
20322;SDS011;10319;52.206;20.996;2022-12-18T15:15:05;28.17;;;10.30;;
20322;SDS011;10319;52.206;20.996;2022-12-18T15:17:30;26.20;;;9.47;;
20322;SDS011;10319;52.206;20.996;2022-12-18T15:20:03;34.57;;;13.90;;
20322;SDS011;10319;52.206;20.996;2022-12-18T15:22:34;38.03;;;15.17;;
20322;SDS011;10319;52.206;20.996;2022-12-18T15:25:00;36.23;;;13.70;;
20322;SDS011;10319;52.206;20.996;2022-12-18T15:27:27;29.37;;;11.27;;
20322;SDS011;10319;52.206;20.996;2022-12-18T15:30:00;32.70;;;13.17;;
20322;SDS011;10319;52.206;20.996;2022-12-18T15:32:25;27.43;;;9.80;;
20322;SDS011;10319;52.206;20.996;2022-12-18T15:34:51;30.27;;;11.40;;
20322;SDS011;10319;52.206;20.996;2022-12-18T15:37:26;32.77;;;12.33;;
20322;SDS011;10319;52.206;20.996;2022-12-18T15:39:51;28.30;;;11.40;;